Time;durP1;ratioP1;P1;durP2;ratioP2;P2;SDS_P1;SDS_P2;PMS_P1;PMS_P2;Temp;Humidity;BMP_temperature;BMP_pressure;BME280_temperature;BME280_humidity;BME280_pressure;Samples;Min_cycle;Max_cycle;Signal;HPM_P1;HPM_P2
2024/01/19 00:00:41;;;;;;;10.73;5.47;;;;;;;0.89;64.59;100517.38;5038254;28;20037;-37
2024/01/19 00:03:06;;;;;;;7.97;4.50;;;;;;;0.85;64.20;100515.72;5031648;28;20045;-38
2024/01/19 00:05:31;;;;;;;4.35;2.75;;;;;;;0.79;63.81;100518.47;5032782;28;20036;-38
2024/01/19 00:07:57;;;;;;;10.50;4.15;;;;;;;0.62;63.16;100523.97;5030190;28;20105;-36
2024/01/19 00:10:22;;;;;;;11.02;5.13;;;;;;;0.60;63.26;100529.19;5039568;28;20052;-37
2024/01/19 00:12:47;;;;;;;7.40;4.15;;;;;;;0.60;63.94;100525.75;5035195;28;20109;-37
2024/01/19 00:15:12;;;;;;;9.75;4.22;;;;;;;0.41;63.51;100540.78;5038746;28;20032;-37
2024/01/19 00:17:38;;;;;;;10.30;4.60;;;;;;;0.33;62.84;100540.91;5041345;28;20027;-38
2024/01/19 00:20:04;;;;;;;6.93;3.65;;;;;;;0.30;62.75;100544.41;5043889;28;20106;-38
2024/01/19 00:22:29;;;;;;;7.78;3.40;;;;;;;0.34;63.41;100545.22;5035967;28;20032;-37
2024/01/19 00:24:54;;;;;;;7.90;4.65;;;;;;;0.43;64.37;100564.91;5040658;28;20040;-37
2024/01/19 00:27:20;;;;;;;5.97;3.88;;;;;;;0.38;63.42;100554.63;5045889;28;20028;-38
2024/01/19 00:29:46;;;;;;;5.25;3.22;;;;;;;0.46;64.25;100554.50;5035734;28;20600;-37
2024/01/19 00:32:11;;;;;;;6.40;3.95;;;;;;;0.45;63.90;100556.22;5038052;28;20060;-37
2024/01/19 00:34:36;;;;;;;7.78;3.63;;;;;;;0.41;63.93;100552.00;5037964;28;20444;-37
2024/01/19 00:37:02;;;;;;;5.40;3.63;;;;;;;0.52;64.36;100559.56;5041996;28;20446;-36
2024/01/19 00:39:27;;;;;;;4.95;1.98;;;;;;;0.63;64.73;100561.94;5042404;28;20037;-37
2024/01/19 00:41:52;;;;;;;5.53;2.80;;;;;;;0.69;64.90;100571.31;5040179;28;20079;-38
2024/01/19 00:44:17;;;;;;;3.00;2.22;;;;;;;0.72;64.77;100577.31;5024962;28;20043;-37
2024/01/19 00:46:43;;;;;;;7.03;3.80;;;;;;;0.72;65.18;100576.44;5040678;28;20502;-37
2024/01/19 00:49:08;;;;;;;3.53;2.13;;;;;;;0.72;65.22;100576.44;5038077;28;20056;-36
2024/01/19 00:51:33;;;;;;;6.53;5.13;;;;;;;0.57;63.26;100581.03;5037441;28;21088;-36
2024/01/19 00:53:58;;;;;;;5.13;3.95;;;;;;;0.57;63.96;100582.78;5035818;28;20071;-38
2024/01/19 00:56:24;;;;;;;9.98;3.97;;;;;;;0.58;64.56;100580.16;5043443;28;20091;-38
2024/01/19 00:58:49;;;;;;;11.20;3.78;;;;;;;0.60;64.54;100586.16;5038392;28;20574;-38
2024/01/19 01:01:14;;;;;;;8.73;3.85;;;;;;;0.47;63.46;100588.97;5035980;28;20124;-38
2024/01/19 01:03:40;;;;;;;5.65;3.65;;;;;;;0.48;63.86;100581.22;5040978;28;20075;-36
2024/01/19 01:06:05;;;;;;;6.47;4.00;;;;;;;0.45;63.48;100586.44;5041568;28;20047;-36
2024/01/19 01:08:34;;;;;;;5.82;3.85;;;;;;;0.45;63.67;100591.63;5040597;28;20094;-38
2024/01/19 01:11:00;;;;;;;9.68;3.63;;;;;;;0.33;63.27;100586.66;5041105;28;20037;-38
2024/01/19 01:13:25;;;;;;;8.23;3.85;;;;;;;0.22;62.95;100595.47;5041613;28;20033;-36
2024/01/19 01:15:51;;;;;;;10.35;4.20;;;;;;;0.19;62.56;100590.34;5044676;28;20048;-37
2024/01/19 01:18:16;;;;;;;4.15;2.67;;;;;;;0.26;63.12;100598.84;5041162;28;20029;-37
2024/01/19 01:20:43;;;;;;;7.95;3.90;;;;;;;0.24;63.48;100598.03;5037526;28;21049;-37
2024/01/19 01:23:08;;;;;;;5.55;3.15;;;;;;;0.31;63.38;100589.25;5038625;28;20427;-36
2024/01/19 01:25:33;;;;;;;5.45;2.35;;;;;;;0.37;64.12;100602.09;5043524;28;20025;-38
2024/01/19 01:27:59;;;;;;;8.80;2.80;;;;;;;0.47;64.82;100599.34;5043469;28;20033;-36
2024/01/19 01:30:24;;;;;;;4.35;2.42;;;;;;;0.52;65.05;100601.00;5045689;28;20547;-38
2024/01/19 01:32:49;;;;;;;3.80;1.85;;;;;;;0.59;65.16;100601.72;5044892;28;20032;-37
2024/01/19 01:35:15;;;;;;;3.20;2.33;;;;;;;0.63;64.77;100592.16;5021157;28;20033;-37
2024/01/19 01:37:40;;;;;;;3.60;2.08;;;;;;;0.67;65.55;100593.81;5040608;28;20041;-38
2024/01/19 01:40:07;;;;;;;5.50;3.03;;;;;;;0.73;65.61;100604.03;5038165;28;20050;-37
2024/01/19 01:42:32;;;;;;;4.18;2.30;;;;;;;0.74;65.19;100606.63;5043497;28;20037;-37
2024/01/19 01:45:00;;;;;;;9.25;3.65;;;;;;;0.76;64.80;100601.41;5043188;28;20040;-37
2024/01/19 01:47:26;;;;;;;5.55;1.95;;;;;;;0.78;65.65;100604.81;5022723;28;20033;-38
2024/01/19 01:49:51;;;;;;;4.60;2.60;;;;;;;0.79;64.92;100598.75;5041000;28;20817;-37
2024/01/19 01:52:18;;;;;;;4.00;2.53;;;;;;;0.81;65.37;100601.31;5043138;28;20033;-37
2024/01/19 01:54:44;;;;;;;3.05;2.05;;;;;;;0.82;65.07;100598.69;5043250;28;20064;-38
2024/01/19 01:57:09;;;;;;;3.85;2.03;;;;;;;0.81;65.49;100591.81;5041219;28;20029;-37
2024/01/19 01:59:35;;;;;;;7.30;4.07;;;;;;;0.82;65.63;100590.06;5037378;28;20029;-36
2024/01/19 02:02:00;;;;;;;4.28;2.30;;;;;;;0.85;65.46;100588.25;5037964;28;20032;-38
2024/01/19 02:04:25;;;;;;;6.22;2.88;;;;;;;0.85;65.01;100588.25;5034686;28;20029;-38
2024/01/19 02:06:51;;;;;;;10.30;4.95;;;;;;;0.80;65.16;100590.09;5026744;28;20082;-37
2024/01/19 02:09:17;;;;;;;6.32;2.63;;;;;;;0.80;65.18;100590.09;5037709;28;20099;-38
2024/01/19 02:11:42;;;;;;;7.13;3.42;;;;;;;0.75;64.36;100605.75;5038028;28;20033;-37
2024/01/19 02:14:09;;;;;;;6.22;3.20;;;;;;;0.67;64.45;100599.84;5040195;28;20033;-38
2024/01/19 02:16:35;;;;;;;10.25;4.28;;;;;;;0.57;63.32;100604.34;5042656;28;20047;-37
2024/01/19 02:19:00;;;;;;;4.43;2.95;;;;;;;0.65;64.08;100605.94;5045155;28;20032;-37
2024/01/19 02:21:25;;;;;;;8.93;3.65;;;;;;;0.63;63.96;100608.53;5040268;28;20083;-38
2024/01/19 02:24:00;;;;;;;10.00;3.55;;;;;;;0.72;64.46;100610.09;5044272;28;20611;-37
2024/01/19 02:26:25;;;;;;;6.55;3.35;;;;;;;0.63;64.50;100610.28;5043391;28;20033;-38
2024/01/19 02:28:51;;;;;;;8.27;3.03;;;;;;;0.59;64.29;100607.75;5043046;28;20141;-37
2024/01/19 02:31:16;;;;;;;6.18;3.75;;;;;;;0.55;63.69;100620.78;5025348;28;20112;-37
2024/01/19 02:33:42;;;;;;;7.43;4.28;;;;;;;0.60;64.09;100617.22;5037401;28;20120;-36
2024/01/19 02:36:08;;;;;;;5.28;2.83;;;;;;;0.72;64.82;100623.06;5021474;28;20041;-38
2024/01/19 02:38:33;;;;;;;7.38;3.88;;;;;;;0.77;65.08;100618.66;5037671;28;20036;-37
2024/01/19 02:40:58;;;;;;;6.35;3.03;;;;;;;0.72;64.11;100618.75;5039035;28;20437;-38
2024/01/19 02:43:23;;;;;;;9.55;5.25;;;;;;;0.64;64.08;100620.59;5042289;28;20036;-37
2024/01/19 02:45:49;;;;;;;6.32;4.70;;;;;;;0.45;62.90;100627.84;5041687;28;20132;-37
2024/01/19 02:48:14;;;;;;;4.55;2.47;;;;;;;0.46;64.10;100629.56;5042194;28;20029;-37
2024/01/19 02:50:39;;;;;;;8.73;4.38;;;;;;;0.48;63.53;100630.41;5039044;28;20108;-37
2024/01/19 02:53:04;;;;;;;6.22;3.88;;;;;;;0.48;63.97;100630.41;5041224;28;20032;-38
2024/01/19 02:55:30;;;;;;;6.70;3.60;;;;;;;0.49;64.25;100621.75;5038476;28;20096;-36
2024/01/19 02:57:55;;;;;;;6.60;3.45;;;;;;;0.56;64.26;100622.50;5036622;28;20111;-37
2024/01/19 03:00:20;;;;;;;3.25;2.35;;;;;;;0.57;64.28;100619.88;5034900;28;20033;-38
2024/01/19 03:02:46;;;;;;;6.25;3.28;;;;;;;0.58;64.72;100611.22;5039480;28;20013;-36
2024/01/19 03:05:11;;;;;;;11.18;3.70;;;;;;;0.61;64.84;100610.28;5037638;28;20525;-37
2024/01/19 03:07:36;;;;;;;7.03;3.50;;;;;;;0.52;63.73;100610.47;5040121;28;20114;-37
2024/01/19 03:10:02;;;;;;;4.72;2.25;;;;;;;0.43;63.50;100616.66;5033969;28;20057;-37
2024/01/19 03:12:27;;;;;;;3.95;2.95;;;;;;;0.49;64.23;100615.72;5039040;28;20032;-38
2024/01/19 03:14:52;;;;;;;4.45;2.42;;;;;;;0.37;63.60;100616.81;5043144;28;20025;-36
2024/01/19 03:17:17;;;;;;;5.05;3.05;;;;;;;0.23;63.70;100622.19;5042635;28;20083;-37
2024/01/19 03:19:44;;;;;;;4.50;2.30;;;;;;;0.35;64.05;100614.22;5043796;28;20364;-37
2024/01/19 03:22:09;;;;;;;5.45;3.13;;;;;;;0.38;64.33;100618.50;5043254;28;20064;-37
2024/01/19 03:24:34;;;;;;;10.65;4.28;;;;;;;0.27;64.15;100616.94;5041638;28;20066;-38
2024/01/19 03:26:59;;;;;;;6.80;2.72;;;;;;;0.38;64.39;100611.59;5042859;28;20052;-37
2024/01/19 03:29:26;;;;;;;6.07;2.67;;;;;;;0.33;63.74;100621.16;5041164;28;20139;-37
2024/01/19 03:31:52;;;;;;;6.95;3.38;;;;;;;0.40;64.19;100616.72;5039908;28;20384;-37
2024/01/19 03:34:17;;;;;;;9.77;5.90;;;;;;;0.14;63.49;100620.63;5036406;28;20022;-37
2024/01/19 03:36:42;;;;;;;6.72;4.63;;;;;;;0.25;63.76;100623.03;5039201;28;20033;-37
2024/01/19 03:39:08;;;;;;;6.47;3.70;;;;;;;0.30;64.39;100619.47;5039449;28;24116;-38
2024/01/19 03:41:33;;;;;;;5.15;3.35;;;;;;;0.37;64.56;100624.56;5022115;28;20106;-37
2024/01/19 03:43:58;;;;;;;8.98;2.90;;;;;;;0.37;63.74;100620.22;5040192;28;20627;-37
2024/01/19 03:46:25;;;;;;;3.58;2.63;;;;;;;0.44;64.85;100621.84;5040172;28;20118;-38
2024/01/19 03:48:50;;;;;;;3.85;2.28;;;;;;;0.43;64.45;100627.03;5036490;28;20128;-37
2024/01/19 03:51:15;;;;;;;6.75;2.47;;;;;;;0.47;63.85;100633.88;5045829;28;20029;-37
2024/01/19 03:53:43;;;;;;;6.07;2.67;;;;;;;0.43;63.19;100645.16;5036221;28;20045;-36
2024/01/19 03:56:09;;;;;;;5.40;2.60;;;;;;;0.50;64.50;100633.81;5039910;28;21314;-37
2024/01/19 03:58:34;;;;;;;6.70;2.92;;;;;;;0.49;63.71;100637.28;5039258;28;20055;-37
2024/01/19 04:00:59;;;;;;;7.60;2.40;;;;;;;0.58;63.97;100626.75;5036807;28;20032;-37
2024/01/19 04:03:25;;;;;;;5.25;2.55;;;;;;;0.68;64.72;100631.78;5039357;28;20028;-37
2024/01/19 04:05:50;;;;;;;2.47;1.60;;;;;;;0.63;64.46;100633.59;5034496;28;20051;-36
2024/01/19 04:08:15;;;;;;;3.08;2.13;;;;;;;0.59;64.34;100633.66;5038375;28;20036;-38
2024/01/19 04:10:41;;;;;;;6.50;2.65;;;;;;;0.58;64.38;100628.50;5040194;28;20091;-38
2024/01/19 04:13:06;;;;;;;5.32;2.80;;;;;;;0.56;64.12;100628.50;5039976;28;20083;-37
2024/01/19 04:15:31;;;;;;;5.57;2.13;;;;;;;0.51;63.88;100635.53;5038221;28;20075;-37
2024/01/19 04:17:56;;;;;;;3.72;2.33;;;;;;;0.68;64.02;100621.44;5038979;28;20041;-37
2024/01/19 04:20:21;;;;;;;3.42;2.20;;;;;;;0.73;64.80;100628.22;5038915;28;20060;-36
2024/01/19 04:22:49;;;;;;;7.72;2.47;;;;;;;0.80;64.62;100631.56;5041386;28;20048;-38
2024/01/19 04:25:14;;;;;;;4.82;2.55;;;;;;;0.83;64.12;100639.25;5036999;28;20032;-36
2024/01/19 04:27:40;;;;;;;4.13;2.17;;;;;;;0.88;64.25;100640.00;5039616;28;20037;-38
2024/01/19 04:30:06;;;;;;;3.45;1.67;;;;;;;0.75;63.85;100644.59;5040683;28;20159;-37
2024/01/19 04:32:31;;;;;;;4.53;2.42;;;;;;;0.82;63.69;100634.97;5041259;28;20045;-36
2024/01/19 04:34:56;;;;;;;4.22;2.28;;;;;;;0.83;63.71;100647.00;5041028;28;20025;-37
2024/01/19 04:37:21;;;;;;;4.65;1.75;;;;;;;0.88;63.84;100640.00;5038120;28;20069;-37
2024/01/19 04:39:47;;;;;;;2.67;2.00;;;;;;;0.71;63.73;100648.13;5036715;28;20488;-37
2024/01/19 04:42:12;;;;;;;4.07;2.20;;;;;;;0.85;63.60;100639.22;5039816;28;20036;-37
2024/01/19 04:44:38;;;;;;;4.80;1.85;;;;;;;0.93;64.16;100658.06;5041291;28;20481;-37
2024/01/19 04:47:03;;;;;;;6.95;2.17;;;;;;;0.86;63.74;100652.13;5043380;28;20067;-36
2024/01/19 04:49:28;;;;;;;3.85;2.72;;;;;;;0.85;63.57;100655.63;5047509;28;20110;-37
2024/01/19 04:51:54;;;;;;;8.55;3.08;;;;;;;0.87;63.67;100663.38;5041946;28;20485;-36
2024/01/19 04:54:19;;;;;;;6.82;2.88;;;;;;;0.78;63.73;100666.13;5021766;28;22034;-36
2024/01/19 04:56:44;;;;;;;6.18;3.13;;;;;;;0.84;63.69;100674.63;5025514;28;20040;-35
2024/01/19 04:59:10;;;;;;;6.15;2.78;;;;;;;0.90;64.21;100663.31;5031515;28;20063;-36
2024/01/19 05:01:35;;;;;;;8.15;3.63;;;;;;;0.94;64.23;100662.34;5040251;28;21312;-36
2024/01/19 05:04:00;;;;;;;4.88;2.58;;;;;;;1.00;64.09;100669.16;5042813;28;20033;-37
2024/01/19 05:06:26;;;;;;;3.28;2.47;;;;;;;1.01;63.99;100670.88;5042335;28;20120;-37
2024/01/19 05:08:51;;;;;;;6.22;3.10;;;;;;;0.98;63.24;100668.34;5041620;28;20420;-37
2024/01/19 05:11:16;;;;;;;7.88;3.88;;;;;;;0.80;63.37;100678.19;5044523;28;20037;-37
2024/01/19 05:13:42;;;;;;;2.25;1.05;;;;;;;0.72;63.51;100670.53;5039987;28;20083;-37
2024/01/19 05:16:08;;;;;;;3.17;2.40;;;;;;;0.81;63.46;100682.47;5040852;28;20417;-37
2024/01/19 05:18:33;;;;;;;4.47;2.30;;;;;;;0.90;63.57;100671.94;5042508;28;20424;-37
2024/01/19 05:20:58;;;;;;;6.55;3.85;;;;;;;0.89;63.57;100671.97;5042408;28;20072;-36
2024/01/19 05:23:24;;;;;;;5.15;2.80;;;;;;;0.93;64.17;100667.59;5041772;28;20098;-37
2024/01/19 05:25:49;;;;;;;2.33;1.55;;;;;;;0.73;63.84;100671.38;5025642;28;20033;-36
2024/01/19 05:28:14;;;;;;;2.58;1.95;;;;;;;0.70;63.90;100671.44;5042860;28;20021;-36
2024/01/19 05:30:40;;;;;;;4.13;2.30;;;;;;;0.84;63.39;100679.81;5037883;28;20154;-35
2024/01/19 05:33:05;;;;;;;13.00;2.90;;;;;;;0.80;63.63;100688.53;5027361;28;20106;-37
2024/01/19 05:35:31;;;;;;;3.38;1.80;;;;;;;0.91;63.36;100671.06;5045956;28;20041;-36
2024/01/19 05:37:56;;;;;;;5.07;2.00;;;;;;;0.75;63.19;100675.69;5041159;28;20110;-37
2024/01/19 05:40:21;;;;;;;5.28;2.45;;;;;;;0.80;63.33;100679.91;5040571;28;20033;-36
2024/01/19 05:42:46;;;;;;;5.95;3.47;;;;;;;0.80;63.95;100682.50;5044695;28;20020;-35
2024/01/19 05:45:11;;;;;;;2.35;1.58;;;;;;;0.82;63.42;100676.41;5038426;28;20160;-36
2024/01/19 05:47:37;;;;;;;6.72;2.85;;;;;;;0.75;63.48;100674.81;5043123;28;20041;-37
2024/01/19 05:50:02;;;;;;;3.67;1.83;;;;;;;0.89;63.70;100678.00;5045206;28;20461;-37
2024/01/19 05:52:27;;;;;;;3.15;2.08;;;;;;;0.73;63.13;100692.09;5046080;28;20124;-36
2024/01/19 05:54:53;;;;;;;2.67;2.05;;;;;;;0.78;63.42;100679.06;5044434;28;20033;-37
2024/01/19 05:57:18;;;;;;;4.95;2.22;;;;;;;0.79;63.16;100681.66;5045301;28;20061;-37
2024/01/19 05:59:43;;;;;;;2.40;1.73;;;;;;;0.84;63.94;100692.75;5038153;28;20036;-36
2024/01/19 06:02:08;;;;;;;3.17;1.83;;;;;;;0.82;63.80;100686.78;5038294;28;20032;-37
2024/01/19 06:04:37;;;;;;;4.18;2.30;;;;;;;0.85;63.83;100691.88;5039854;28;20064;-36
2024/01/19 06:07:02;;;;;;;3.55;1.85;;;;;;;0.85;63.39;100691.88;5040960;28;20037;-36
2024/01/19 06:09:28;;;;;;;5.30;2.28;;;;;;;0.78;63.67;100687.72;5041724;28;20040;-37
2024/01/19 06:11:54;;;;;;;4.70;1.80;;;;;;;0.80;63.51;100704.09;5035229;28;20038;-37
2024/01/19 06:14:19;;;;;;;4.15;2.47;;;;;;;0.91;63.98;100685.72;5039880;28;20098;-37
2024/01/19 06:16:44;;;;;;;1.88;1.10;;;;;;;0.82;63.08;100707.50;5041338;28;20044;-37
2024/01/19 06:19:10;;;;;;;3.42;1.75;;;;;;;0.84;63.60;100700.53;5024924;28;20447;-36
2024/01/19 06:21:35;;;;;;;4.75;2.20;;;;;;;0.87;63.52;100710.84;5018891;28;20497;-36
2024/01/19 06:24:00;;;;;;;6.57;2.47;;;;;;;0.87;62.97;100713.44;5028685;28;20049;-37
2024/01/19 06:26:32;;;;;;;3.25;2.25;;;;;;;0.71;63.44;100712.00;5044490;28;20449;-37
2024/01/19 06:28:57;;;;;;;3.35;1.52;;;;;;;0.90;63.06;100731.53;5043893;28;20552;-36
2024/01/19 06:31:22;;;;;;;3.80;1.77;;;;;;;0.98;63.72;100715.00;5040329;28;20057;-37
2024/01/19 06:33:47;;;;;;;3.38;1.58;;;;;;;0.98;63.36;100725.38;5043209;28;20638;-37
2024/01/19 06:36:13;;;;;;;4.10;2.75;;;;;;;1.04;63.25;100728.69;5045211;28;20037;-36
2024/01/19 06:38:38;;;;;;;5.00;2.47;;;;;;;1.13;63.52;100729.41;5045345;28;20041;-36
2024/01/19 06:41:04;;;;;;;4.38;2.90;;;;;;;1.11;63.42;100734.63;5043252;28;20017;-36
2024/01/19 06:43:29;;;;;;;7.82;2.47;;;;;;;1.23;63.05;100727.50;5045365;28;20125;-36
2024/01/19 06:45:55;;;;;;;4.00;2.03;;;;;;;1.17;63.19;100729.31;5042372;28;20029;-37
2024/01/19 06:48:20;;;;;;;1.55;1.42;;;;;;;1.05;62.67;100740.78;5045451;28;20048;-36
2024/01/19 06:50:45;;;;;;;3.63;1.58;;;;;;;1.14;62.91;100744.91;5041680;28;20037;-36
2024/01/19 06:53:11;;;;;;;3.85;1.25;;;;;;;1.01;63.05;100751.19;5028904;28;20039;-35
2024/01/19 06:55:36;;;;;;;3.88;1.63;;;;;;;1.13;62.69;100752.72;5039419;28;20036;-36
2024/01/19 06:58:01;;;;;;;2.95;1.88;;;;;;;1.24;62.97;100757.72;5030705;28;20020;-37
2024/01/19 07:00:27;;;;;;;3.22;1.65;;;;;;;1.27;62.83;100765.44;5044000;28;20594;-35
2024/01/19 07:02:53;;;;;;;2.53;1.45;;;;;;;1.19;62.46;100752.63;5043946;28;20021;-37
2024/01/19 07:05:18;;;;;;;1.08;0.85;;;;;;;1.13;62.85;100758.78;5043109;28;20484;-37
2024/01/19 07:07:43;;;;;;;4.40;2.47;;;;;;;1.30;63.59;100755.00;5034151;28;20071;-37
2024/01/19 07:10:09;;;;;;;2.33;1.02;;;;;;;1.29;63.04;100755.88;5045313;28;20052;-37
2024/01/19 07:12:34;;;;;;;2.58;1.38;;;;;;;1.25;62.89;100756.84;5042585;28;20043;-36
2024/01/19 07:14:59;;;;;;;3.63;1.88;;;;;;;1.25;62.77;100752.50;5042923;28;20028;-37
2024/01/19 07:17:25;;;;;;;1.20;0.98;;;;;;;1.23;63.31;100759.44;5041051;28;20537;-37
2024/01/19 07:19:50;;;;;;;3.42;1.75;;;;;;;1.21;63.18;100756.03;5021756;28;20029;-37
2024/01/19 07:22:16;;;;;;;2.85;1.45;;;;;;;1.20;62.94;100750.00;5045629;28;20098;-36
2024/01/19 07:24:41;;;;;;;2.75;1.55;;;;;;;1.22;62.70;100757.72;5038107;28;20701;-36
2024/01/19 07:27:06;;;;;;;3.78;1.75;;;;;;;1.11;63.14;100762.25;5042547;28;20064;-36
2024/01/19 07:29:32;;;;;;;1.15;1.05;;;;;;;0.73;63.39;100765.50;5040503;28;20040;-37
2024/01/19 07:31:57;;;;;;;3.35;1.13;;;;;;;1.16;63.36;100758.69;5017752;28;20147;-37
2024/01/19 07:34:23;;;;;;;3.90;1.05;;;;;;;1.24;63.63;100773.28;5015707;28;20067;-36
2024/01/19 07:36:48;;;;;;;4.35;1.42;;;;;;;1.32;63.16;100766.19;5044786;28;20029;-36
2024/01/19 07:39:14;;;;;;;2.53;1.67;;;;;;;1.23;63.12;100767.22;5043590;28;20033;-36
2024/01/19 07:41:40;;;;;;;2.83;1.48;;;;;;;1.19;62.96;100784.56;5045112;28;20024;-35
2024/01/19 07:44:06;;;;;;;2.22;1.35;;;;;;;1.30;63.55;100786.09;5043126;28;20044;-37
2024/01/19 07:46:31;;;;;;;1.48;1.38;;;;;;;1.34;63.56;100788.63;5043388;28;20033;-36
2024/01/19 07:48:56;;;;;;;4.85;1.75;;;;;;;1.42;63.22;100801.44;5044379;28;20071;-38
2024/01/19 07:51:22;;;;;;;2.55;1.55;;;;;;;1.25;62.83;100799.16;5043224;28;20884;-37
2024/01/19 07:53:47;;;;;;;2.17;1.20;;;;;;;1.29;63.48;100806.00;5042997;28;20025;-36
2024/01/19 07:56:12;;;;;;;2.00;1.10;;;;;;;1.31;63.20;100809.44;5045637;28;20471;-37
2024/01/19 07:58:38;;;;;;;1.00;0.70;;;;;;;1.40;63.34;100813.59;5042125;28;20061;-36
2024/01/19 08:01:04;;;;;;;2.65;1.67;;;;;;;1.40;63.34;100812.72;5034625;28;20028;-37
2024/01/19 08:03:30;;;;;;;3.15;1.55;;;;;;;1.41;63.60;100817.91;5044600;28;20033;-37
2024/01/19 08:05:55;;;;;;;3.05;1.73;;;;;;;1.25;62.84;100811.28;5046355;28;20466;-37
2024/01/19 08:08:20;;;;;;;2.63;1.55;;;;;;;1.41;63.17;100811.84;5042229;28;20116;-37
2024/01/19 08:10:45;;;;;;;2.95;1.90;;;;;;;1.36;62.85;100811.94;5044048;28;20052;-37
2024/01/19 08:13:12;;;;;;;5.63;2.20;;;;;;;1.51;63.32;100816.81;5042757;28;20062;-36
2024/01/19 08:15:37;;;;;;;1.88;1.27;;;;;;;1.29;63.10;100828.47;5041655;28;20031;-36
2024/01/19 08:18:03;;;;;;;3.83;1.80;;;;;;;1.57;63.49;100815.00;5044465;28;20028;-36
2024/01/19 08:20:28;;;;;;;3.53;1.90;;;;;;;1.43;62.54;100836.88;5038772;28;20028;-39
2024/01/19 08:22:54;;;;;;;1.33;0.95;;;;;;;1.52;62.83;100828.03;5042552;28;20086;-36
2024/01/19 08:25:19;;;;;;;1.80;1.13;;;;;;;1.58;62.99;100830.53;5032374;28;20029;-37
2024/01/19 08:27:44;;;;;;;2.95;1.48;;;;;;;1.50;62.69;100832.44;5036145;28;20428;-35
2024/01/19 08:30:10;;;;;;;2.00;1.08;;;;;;;1.61;63.29;100835.66;5031290;28;24682;-36
2024/01/19 08:32:36;;;;;;;2.17;1.23;;;;;;;1.52;63.11;100859.16;5035845;28;20029;-37
2024/01/19 08:35:08;;;;;;;1.45;0.82;;;;;;;1.76;62.95;100847.47;5039281;28;20302;-36
2024/01/19 08:37:40;;;;;;;1.58;1.02;;;;;;;1.87;63.25;100859.41;5038819;28;20112;-35
2024/01/19 08:40:10;;;;;;;3.40;1.92;;;;;;;1.87;62.99;100859.41;5037293;28;20044;-37
2024/01/19 08:42:36;;;;;;;1.35;0.85;;;;;;;1.77;62.98;100871.69;5037696;28;20033;-36
2024/01/19 08:45:02;;;;;;;2.53;1.58;;;;;;;1.88;62.99;100861.13;5035502;28;20025;-35
2024/01/19 08:47:27;;;;;;;3.92;1.50;;;;;;;1.88;63.22;100880.13;5044593;28;20025;-37
2024/01/19 08:49:53;;;;;;;4.50;2.55;;;;;;;2.06;63.34;100855.53;5042870;28;20029;-37
2024/01/19 08:52:18;;;;;;;4.25;1.83;;;;;;;2.08;62.88;100869.34;5043918;28;20050;-37
2024/01/19 08:54:43;;;;;;;3.00;1.60;;;;;;;1.97;63.17;100871.31;5043417;28;20025;-36
2024/01/19 08:57:09;;;;;;;2.72;1.75;;;;;;;2.10;62.81;100877.97;5027757;28;20424;-37
2024/01/19 08:59:34;;;;;;;2.60;1.40;;;;;;;2.18;62.89;100874.38;5043462;28;20037;-37
2024/01/19 09:01:59;;;;;;;2.28;1.42;;;;;;;1.93;63.00;100885.22;5036749;28;20013;-37
2024/01/19 09:04:25;;;;;;;2.60;1.17;;;;;;;2.09;62.90;100878.00;5008116;28;20171;-36
2024/01/19 09:06:51;;;;;;;3.53;1.45;;;;;;;2.21;62.96;100895.03;5024240;28;20037;-36
2024/01/19 09:09:17;;;;;;;2.80;1.77;;;;;;;2.18;62.94;100889.94;5039732;28;20028;-36
2024/01/19 09:11:42;;;;;;;7.68;1.90;;;;;;;2.25;62.80;100894.97;5039401;28;20037;-36
2024/01/19 09:14:09;;;;;;;1.98;1.55;;;;;;;2.13;63.04;100896.06;5039605;28;20040;-36
2024/01/19 09:16:35;;;;;;;2.10;1.27;;;;;;;2.23;62.73;100914.06;5035173;28;20063;-37
2024/01/19 09:19:00;;;;;;;13.10;2.40;;;;;;;2.17;62.42;100894.25;5036991;28;20024;-37
2024/01/19 09:21:26;;;;;;;4.82;1.70;;;;;;;2.33;62.74;100900.00;5040581;28;20545;-38
2024/01/19 09:23:53;;;;;;;2.67;1.90;;;;;;;2.43;62.50;100911.91;5040762;28;20044;-37
2024/01/19 09:26:20;;;;;;;3.50;2.10;;;;;;;2.43;62.38;100917.09;5038107;28;20028;-37
2024/01/19 09:28:45;;;;;;;4.45;1.85;;;;;;;2.51;62.37;100909.16;5042429;28;20040;-37
2024/01/19 09:31:10;;;;;;;2.30;1.65;;;;;;;2.51;62.64;100931.66;5040569;28;20504;-37
2024/01/19 09:33:36;;;;;;;1.95;1.10;;;;;;;2.50;62.48;100916.94;5040895;28;20055;-37
2024/01/19 09:36:01;;;;;;;2.40;2.08;;;;;;;2.37;62.16;100921.56;5044071;28;20029;-36
2024/01/19 09:38:27;;;;;;;2.55;1.30;;;;;;;2.35;62.53;100944.13;5043721;28;20044;-37
2024/01/19 09:41:02;;;;;;;5.95;2.45;;;;;;;2.56;62.60;100942.81;5046174;28;20036;-37
2024/01/19 09:43:32;;;;;;;3.20;1.60;;;;;;;2.43;62.21;100962.97;5041202;28;20029;-37
2024/01/19 09:46:04;;;;;;;2.50;1.10;;;;;;;2.61;62.00;100956.56;5040901;28;20025;-36
2024/01/19 09:48:33;;;;;;;;;;;;;;;2.81;62.07;100958.75;5043728;28;20054;-36
2024/01/19 09:51:05;;;;;;;0.85;0.55;;;;;;;2.50;62.00;100958.50;5039669;28;20059;-37
2024/01/19 09:53:42;;;;;;;4.18;1.45;;;;;;;2.78;62.16;100968.34;5039603;28;20032;-37
2024/01/19 09:56:08;;;;;;;3.05;1.33;;;;;;;2.69;62.01;100957.25;5027983;28;20033;-39
2024/01/19 09:58:33;;;;;;;4.18;1.48;;;;;;;2.78;61.58;100958.81;5041528;28;20097;-37
2024/01/19 10:01:00;;;;;;;2.63;1.83;;;;;;;2.93;61.98;100960.22;5041963;28;21677;-37
2024/01/19 10:03:27;;;;;;;8.70;1.67;;;;;;;2.93;61.58;100962.81;5044321;28;20067;-37
2024/01/19 10:05:53;;;;;;;1.65;1.27;;;;;;;2.87;61.80;100963.78;5044974;28;20033;-37
2024/01/19 10:08:19;;;;;;;2.53;1.65;;;;;;;2.93;61.80;100962.81;5041985;28;20381;-38
2024/01/19 10:10:45;;;;;;;5.60;1.38;;;;;;;2.94;61.78;100985.31;5042689;28;20033;-37
2024/01/19 10:13:11;;;;;;;1.92;1.08;;;;;;;2.80;61.83;100983.00;5022567;28;20075;-36
2024/01/19 10:15:36;;;;;;;1.15;0.65;;;;;;;2.79;61.81;100985.66;5043304;28;21406;-37
2024/01/19 10:18:03;;;;;;;2.55;1.20;;;;;;;3.06;61.79;100994.56;5043448;28;20656;-36
2024/01/19 10:20:29;;;;;;;3.13;1.73;;;;;;;2.94;61.90;101000.06;5043972;28;20025;-37
2024/01/19 10:22:54;;;;;;;2.55;1.38;;;;;;;2.85;62.21;100996.78;5038905;28;20040;-36
2024/01/19 10:25:19;;;;;;;3.40;1.38;;;;;;;2.88;62.15;100995.84;5032752;28;20067;-37
2024/01/19 10:27:46;;;;;;;5.38;2.28;;;;;;;2.94;61.85;101010.44;5040979;28;20493;-36
2024/01/19 10:30:17;;;;;;;1.77;1.40;;;;;;;3.18;62.02;100988.25;5035122;28;20135;-37
2024/01/19 10:32:45;;;;;;;5.50;1.67;;;;;;;3.12;61.87;100998.78;5035974;28;20203;-38
2024/01/19 10:35:16;;;;;;;3.63;2.42;;;;;;;3.11;61.40;100991.88;5021681;28;20496;-37
2024/01/19 10:37:42;;;;;;;1.58;1.25;;;;;;;3.23;61.73;100993.34;5041890;28;20140;-36
2024/01/19 10:40:15;;;;;;;4.03;1.08;;;;;;;3.12;61.35;100999.66;5042988;28;20108;-37
2024/01/19 10:42:42;;;;;;;4.22;1.60;;;;;;;3.24;61.32;101005.47;5028298;28;20066;-37
2024/01/19 10:45:15;;;;;;;8.00;1.80;;;;;;;3.28;61.72;101013.16;5040406;28;20104;-35
2024/01/19 10:47:54;;;;;;;4.18;2.17;;;;;;;3.38;61.79;101010.34;5046911;28;20483;-37
2024/01/19 10:50:21;;;;;;;2.97;1.38;;;;;;;3.34;61.41;101027.75;5045988;28;20029;-37
2024/01/19 10:52:51;;;;;;;3.28;1.83;;;;;;;3.45;61.49;101027.50;5041107;28;20032;-37
2024/01/19 10:55:27;;;;;;;1.98;0.80;;;;;;;3.33;61.25;101008.72;5044740;28;20029;-37
2024/01/19 10:57:53;;;;;;;2.38;0.70;;;;;;;3.38;61.20;101020.75;5043372;28;20037;-37
2024/01/19 11:00:24;;;;;;;1.25;0.93;;;;;;;3.49;61.59;101019.59;5040846;28;20028;-37
2024/01/19 11:02:52;;;;;;;2.63;1.60;;;;;;;3.49;61.28;101030.00;5042243;28;20025;-37
2024/01/19 11:05:21;;;;;;;2.28;1.33;;;;;;;3.46;61.11;101031.81;5042535;28;20032;-37
2024/01/19 11:07:52;;;;;;;4.47;1.75;;;;;;;3.47;61.29;101036.13;5039084;28;20028;-38
2024/01/19 11:10:19;;;;;;;1.75;1.10;;;;;;;3.57;61.27;101037.63;5043305;28;20064;-37
2024/01/19 11:12:51;;;;;;;1.33;0.95;;;;;;;3.41;60.72;101034.53;5041713;28;20483;-38
2024/01/19 11:15:27;;;;;;;4.80;1.90;;;;;;;3.57;60.91;101037.63;5037462;28;20124;-37
2024/01/19 11:17:55;;;;;;;3.70;1.00;;;;;;;3.52;60.49;101039.50;5040424;28;20031;-37
2024/01/19 11:20:22;;;;;;;6.75;1.88;;;;;;;3.60;60.75;101041.91;5042864;28;20155;-38
2024/01/19 11:22:47;;;;;;;2.97;1.13;;;;;;;3.63;60.84;101045.28;5039610;28;20105;-37
2024/01/19 11:25:17;;;;;;;1.48;0.80;;;;;;;3.61;60.65;101060.09;5040218;28;20144;-38
2024/01/19 11:27:52;;;;;;;2.17;1.35;;;;;;;3.68;60.42;101044.34;5041625;28;20035;-36